Time;durP1;ratioP1;P1;durP2;ratioP2;P2;SDS_P1;SDS_P2;PMS_P1;PMS_P2;Temp;Humidity;BMP_temperature;BMP_pressure;BME280_temperature;BME280_humidity;BME280_pressure;Samples;Min_cycle;Max_cycle;Signal;HPM_P1;HPM_P2
2023/11/19 00:00:37;;;;;;;13.15;6.20;;;77.50;2227.20;;;;;;6246089;23;20061;-65
2023/11/19 00:03:03;;;;;;;11.98;6.63;;;77.50;2227.20;;;;;;6245857;23;20306;-63
2023/11/19 00:05:28;;;;;;;10.32;5.75;;;77.40;2227.20;;;;;;6245742;23;20117;-63
2023/11/19 00:07:54;;;;;;;10.75;5.97;;;77.40;2227.20;;;;;;6245536;23;20002;-64
2023/11/19 00:10:20;;;;;;;10.00;5.10;;;77.40;2227.20;;;;;;6246275;23;20014;-63
2023/11/19 00:12:50;;;;;;;11.40;5.60;;;77.40;2227.20;;;;;;6245521;23;20050;-63
2023/11/19 00:15:18;;;;;;;9.10;4.97;;;77.30;2227.20;;;;;;6243364;23;20042;-64
2023/11/19 00:17:48;;;;;;;8.43;4.95;;;77.30;2227.20;;;;;;6244687;23;19996;-65
2023/11/19 00:20:13;;;;;;;11.88;6.28;;;77.40;2227.20;;;;;;6244622;23;20004;-64
2023/11/19 00:22:39;;;;;;;23.73;11.63;;;77.40;2227.20;;;;;;6243613;23;20175;-65
2023/11/19 00:25:06;;;;;;;35.42;14.82;;;77.30;2227.20;;;;;;6244983;23;20004;-64
2023/11/19 00:27:32;;;;;;;30.48;14.38;;;77.20;2227.20;;;;;;6245602;23;19996;-64
2023/11/19 00:29:58;;;;;;;30.98;14.73;;;77.20;2227.20;;;;;;6247026;23;20015;-64
2023/11/19 00:32:26;;;;;;;26.27;13.27;;;77.10;2227.20;;;;;;6243882;23;20047;-62
2023/11/19 00:34:52;;;;;;;17.83;8.80;;;77.00;2227.20;;;;;;6245270;23;20048;-64
2023/11/19 00:37:18;;;;;;;14.70;7.13;;;76.90;2227.20;;;;;;6245591;23;20019;-63
2023/11/19 00:39:44;;;;;;;10.32;6.10;;;76.90;2227.20;;;;;;6245509;23;20004;-64
2023/11/19 00:42:10;;;;;;;13.07;6.28;;;76.90;2227.20;;;;;;6245369;23;20008;-64
2023/11/19 00:44:36;;;;;;;15.55;7.93;;;76.90;2227.20;;;;;;6246102;23;19996;-64
2023/11/19 00:47:03;;;;;;;13.90;6.78;;;76.90;2227.20;;;;;;6246838;23;20008;-66
2023/11/19 00:49:28;;;;;;;13.93;7.47;;;76.90;2227.20;;;;;;6246575;23;20321;-62
2023/11/19 00:51:54;;;;;;;10.52;5.70;;;76.80;2227.20;;;;;;6246418;23;20032;-62
2023/11/19 00:54:20;;;;;;;10.30;5.90;;;77.00;2227.20;;;;;;6247159;23;20011;-64
2023/11/19 00:56:45;;;;;;;9.30;5.45;;;76.90;2227.20;;;;;;6247116;23;20031;-65
2023/11/19 00:59:12;;;;;;;10.02;5.28;;;76.90;2227.20;;;;;;6246474;23;20004;-64
2023/11/19 01:01:37;;;;;;;11.13;5.90;;;76.80;2227.20;;;;;;6219697;23;20007;-65
2023/11/19 01:04:03;;;;;;;10.13;6.07;;;76.90;2227.20;;;;;;6246299;23;19996;-64
2023/11/19 01:06:30;;;;;;;10.00;5.43;;;;;;;;;;6246577;23;20077;-62
2023/11/19 01:08:59;;;;;;;11.80;6.32;;;;;;;;;;6246314;23;20000;-66
2023/11/19 01:11:25;;;;;;;10.30;5.93;;;;;;;;;;6246743;23;20087;-63
2023/11/19 01:13:52;;;;;;;11.95;6.20;;;;;;;;;;6246516;23;20050;-64
2023/11/19 01:16:18;;;;;;;10.15;5.72;;;;;;;;;;6246729;23;20074;-64
2023/11/19 01:18:45;;;;;;;10.32;5.82;;;;;;;;;;6246503;23;20309;-65
2023/11/19 01:21:11;;;;;;;15.55;6.55;;;;;;;;;;6246660;23;20131;-64
2023/11/19 01:23:37;;;;;;;10.80;6.13;;;52.00;2227.20;;;;;;6247147;23;20042;-64
2023/11/19 01:26:05;;;;;;;11.27;6.40;;;51.90;1920.00;;;;;;6245816;23;20357;-64
2023/11/19 01:28:34;;;;;;;11.75;6.22;;;51.70;2227.20;;;;;;6246105;23;20038;-64
2023/11/19 01:30:59;;;;;;;11.15;6.32;;;51.60;2227.20;;;;;;6246649;23;20000;-63
2023/11/19 01:33:25;;;;;;;12.30;6.40;;;51.50;2227.20;;;;;;6246591;23;20417;-64
2023/11/19 01:35:50;;;;;;;12.05;6.18;;;51.70;2227.20;;;;;;6246437;23;20112;-65
2023/11/19 01:38:19;;;;;;;11.10;5.93;;;51.50;2227.20;;;;;;6246170;23;20027;-64
2023/11/19 01:40:45;;;;;;;10.32;5.93;;;51.50;2227.20;;;;;;6246600;23;20022;-62
2023/11/19 01:43:11;;;;;;;11.65;6.28;;;51.50;2227.20;;;;;;6246458;23;20020;-64
2023/11/19 01:45:38;;;;;;;10.63;6.00;;;51.50;2227.20;;;;;;6246967;23;20027;-65
2023/11/19 01:48:05;;;;;;;10.90;6.45;;;51.50;2227.20;;;;;;6245472;23;20495;-62
2023/11/19 01:50:33;;;;;;;10.85;6.05;;;51.50;2227.20;;;;;;6245801;23;20054;-67
2023/11/19 01:52:58;;;;;;;11.25;5.75;;;51.60;2227.20;;;;;;6246078;23;19996;-66
2023/11/19 01:55:28;;;;;;;15.70;6.28;;;51.50;2227.20;;;;;;6245275;23;20019;-63
2023/11/19 01:57:59;;;;;;;10.77;6.55;;;51.40;2227.20;;;;;;6245399;23;20010;-66
2023/11/19 02:00:25;;;;;;;11.60;6.68;;;51.50;2227.20;;;;;;6245636;23;20007;-67
2023/11/19 02:02:52;;;;;;;17.27;7.68;;;51.50;2227.20;;;;;;6244757;23;20075;-63
2023/11/19 02:05:17;;;;;;;12.90;7.22;;;51.50;2227.20;;;;;;6245098;23;20024;-65
2023/11/19 02:07:43;;;;;;;11.38;6.78;;;51.50;1868.80;;;;;;6245456;23;20046;-64
2023/11/19 02:10:14;;;;;;;13.02;7.07;;;51.40;2227.20;;;;;;6245116;23;20005;-63
2023/11/19 02:12:44;;;;;;;14.57;7.20;;;51.40;2022.40;;;;;;6245463;23;20001;-62
2023/11/19 02:15:11;;;;;;;11.95;6.95;;;51.40;2227.20;;;;;;6245653;23;20456;-65
2023/11/19 02:17:39;;;;;;;12.88;7.22;;;51.40;2227.20;;;;;;6245727;23;20070;-65
2023/11/19 02:20:11;;;;;;;16.75;8.05;;;51.40;2227.20;;;;;;6245481;23;20058;-65
2023/11/19 02:22:37;;;;;;;14.25;7.28;;;51.30;2227.20;;;;;;6246401;23;20054;-66
2023/11/19 02:25:09;;;;;;;12.57;6.78;;;51.40;2227.20;;;;;;6245124;23;20424;-63
2023/11/19 02:28:05;;;;;;;12.10;6.78;;;51.30;2176.00;;;;;;6246566;23;19996;-64
2023/11/19 02:30:31;;;;;;;11.52;6.80;;;51.30;2124.80;;;;;;6094458;23;20030;-63
2023/11/19 02:32:58;;;;;;;11.40;6.50;;;;;;;;;;6094490;23;20015;-64
2023/11/19 02:35:26;;;;;;;11.77;6.38;;;;;;;;;;6094485;23;20387;-63
2023/11/19 02:37:52;;;;;;;10.77;6.30;;;;;;;;;;6094840;23;20006;-64
2023/11/19 02:40:18;;;;;;;10.75;6.25;;;;;;;;;;6093715;23;20061;-63
2023/11/19 02:42:44;;;;;;;11.57;6.88;;;;;;;;;;6094317;23;20009;-64
2023/11/19 02:45:14;;;;;;;13.43;6.93;;;;;;;;;;6094622;23;20007;-64
2023/11/19 02:47:44;;;;;;;11.57;6.57;;;;;;;;;;6094506;23;20535;-65
2023/11/19 02:50:14;;;;;;;12.00;6.78;;;;;;;;;;6094667;23;20015;-65
2023/11/19 02:52:44;;;;;;;13.27;6.90;;;;;;;;;;6094205;23;20033;-64
2023/11/19 02:55:14;;;;;;;11.43;5.90;;;;;;;;;;6094146;23;20025;-64
2023/11/19 02:57:47;;;;;;;11.13;6.72;;;;;;;;;;6094248;23;20085;-63
2023/11/19 03:00:15;;;;;;;11.90;6.32;;;;;;;;;;6093706;23;20006;-63
2023/11/19 03:02:48;;;;;;;11.95;6.25;;;;;;;;;;6094336;23;20017;-65
2023/11/19 03:05:14;;;;;;;12.45;6.93;;;;;;;;;;6094143;23;20006;-65
2023/11/19 03:07:44;;;;;;;11.88;6.55;;;;;;;;;;6194880;23;20441;-62
2023/11/19 03:10:14;;;;;;;11.77;6.43;;;;;;;;;;6215855;23;20005;-62
2023/11/19 03:12:41;;;;;;;10.60;6.30;;;;;;;;;;6215755;23;20032;-65
2023/11/19 03:15:09;;;;;;;10.57;6.40;;;;;;;;;;6214961;23;20143;-61
2023/11/19 03:17:36;;;;;;;11.55;6.53;;;;;;;;;;6216815;23;19996;-63
2023/11/19 03:20:02;;;;;;;11.95;7.05;;;;;;;;;;6216380;23;20005;-65
2023/11/19 03:22:29;;;;;;;12.32;6.82;;;;;;;;;;6217128;23;20380;-63
2023/11/19 03:24:55;;;;;;;12.65;6.97;;;;;;;;;;6217155;23;20051;-65
2023/11/19 03:27:22;;;;;;;11.85;6.93;;;;;;;;;;6216194;23;20064;-64
2023/11/19 03:29:48;;;;;;;12.75;6.97;;;;;;;;;;6217184;23;20007;-66
2023/11/19 03:32:15;;;;;;;12.05;6.90;;;;;;;;;;6233133;23;20035;-63
2023/11/19 03:34:41;;;;;;;11.63;6.85;;;;;;;;;;6246203;23;20019;-61
2023/11/19 03:37:07;;;;;;;12.52;6.70;;;;;;;;;;6246838;23;20372;-63
2023/11/19 03:39:33;;;;;;;12.15;6.90;;;;;;;;;;6246945;23;20321;-64
2023/11/19 03:42:00;;;;;;;11.35;7.00;;;;;;;;;;6246605;23;20016;-64
2023/11/19 03:44:26;;;;;;;11.63;6.68;;;;;;;;;;6246969;23;20034;-64
2023/11/19 03:46:52;;;;;;;15.27;7.25;;;;;;;;;;6247485;23;19997;-64
2023/11/19 03:49:19;;;;;;;13.98;7.40;;;;;;;;;;6247190;23;20032;-65
2023/11/19 03:51:45;;;;;;;12.68;7.47;;;;;;;;;;6246946;23;19996;-64
2023/11/19 03:54:11;;;;;;;15.13;8.25;;;;;;;;;;6246411;23;20083;-64
2023/11/19 03:56:38;;;;;;;13.48;7.63;;;;;;;;;;6246595;23;20434;-64
2023/11/19 03:59:07;;;;;;;13.23;7.95;;;;;;;;;;6246570;23;20464;-61
2023/11/19 04:01:33;;;;;;;16.40;8.05;;;;;;;;;;6246892;23;20004;-63
2023/11/19 04:04:00;;;;;;;15.82;8.75;;;;;;;;;;6245798;23;20042;-66
2023/11/19 04:06:26;;;;;;;14.57;8.52;;;;;;;;;;6246676;23;20008;-64
2023/11/19 04:08:52;;;;;;;14.10;7.90;;;;;;;;;;6247069;23;20130;-64
2023/11/19 04:11:18;;;;;;;17.98;7.90;;;;;;;;;;6246114;23;20007;-63
2023/11/19 04:13:44;;;;;;;13.43;7.43;;;;;;;;;;6246985;23;20421;-66
2023/11/19 04:16:10;;;;;;;14.93;7.75;;;;;;;;;;6245833;23;20016;-62
2023/11/19 04:18:36;;;;;;;15.63;8.05;;;;;;;;;;6245868;23;19996;-64
2023/11/19 04:21:06;;;;;;;15.48;8.00;;;;;;;;;;6246252;23;20000;-65
2023/11/19 04:23:34;;;;;;;22.33;10.05;;;;;;;;;;6246580;23;19996;-63
2023/11/19 04:26:04;;;;;;;20.65;9.98;;;;;;;;;;6246942;23;20086;-63
2023/11/19 04:28:30;;;;;;;24.00;10.73;;;;;;;;;;6246334;23;20000;-64
2023/11/19 04:30:56;;;;;;;18.75;9.05;;;;;;;;;;6246452;23;20004;-64
2023/11/19 04:33:23;;;;;;;18.80;8.88;;;;;;;;;;6246808;23;20008;-65
2023/11/19 04:35:49;;;;;;;18.20;8.27;;;;;;;;;;6245833;23;20046;-67
2023/11/19 04:38:15;;;;;;;18.20;8.75;;;;;;;;;;6246469;23;20007;-65
2023/11/19 04:40:41;;;;;;;17.05;8.60;;;;;;;;;;6246667;23;20004;-65
2023/11/19 04:43:07;;;;;;;17.83;8.95;;;;;;;;;;6247308;23;20338;-66
2023/11/19 04:45:34;;;;;;;16.77;9.10;;;;;;;;;;6247183;23;20065;-64
2023/11/19 04:48:00;;;;;;;18.92;9.45;;;;;;;;;;6247096;23;20480;-66
2023/11/19 04:50:27;;;;;;;28.25;13.07;;;;;;;;;;6246574;23;20000;-65
2023/11/19 04:52:53;;;;;;;18.48;10.27;;;;;;;;;;6246560;23;20038;-65
2023/11/19 04:55:19;;;;;;;18.20;9.43;;;26.30;2201.60;;;;;;6246707;23;20016;-65
2023/11/19 04:57:45;;;;;;;18.48;10.10;;;26.10;2201.60;;;;;;6247277;23;20329;-66
2023/11/19 05:00:11;;;;;;;42.03;27.60;;;26.00;2201.60;;;;;;6246922;23;19996;-64
2023/11/19 05:02:38;;;;;;;19.95;10.90;;;26.10;2201.60;;;;;;6246870;23;20000;-65
2023/11/19 05:05:04;;;;;;;14.57;8.20;;;26.00;1971.20;;;;;;6246732;23;20001;-65
2023/11/19 05:07:30;;;;;;;16.63;9.02;;;25.80;2201.60;;;;;;6246880;23;20446;-65
2023/11/19 05:09:56;;;;;;;16.92;9.25;;;25.60;2201.60;;;;;;6246251;23;20007;-67
2023/11/19 05:12:22;;;;;;;18.50;9.82;;;25.60;2201.60;;;;;;6246667;23;20008;-64
2023/11/19 05:14:50;;;;;;;15.70;8.10;;;25.60;2201.60;;;;;;6246736;23;20012;-65
2023/11/19 05:17:18;;;;;;;15.60;8.23;;;0.80;2201.60;;;;;;6246777;23;20031;-65
2023/11/19 05:19:48;;;;;;;22.50;13.82;;;0.70;2201.60;;;;;;6245781;23;20332;-67
2023/11/19 05:22:13;;;;;;;23.83;13.23;;;0.60;2201.60;;;;;;6246850;23;20011;-64
2023/11/19 05:24:40;;;;;;;22.83;13.98;;;0.50;2201.60;;;;;;6246874;23;20050;-63
2023/11/19 05:27:07;;;;;;;34.83;18.30;;;0.60;2201.60;;;;;;6246274;23;20004;-64
2023/11/19 05:29:33;;;;;;;39.75;20.30;;;0.50;2201.60;;;;;;6246918;23;20011;-65
2023/11/19 05:31:59;;;;;;;39.40;18.52;;;0.60;2201.60;;;;;;6246579;23;20016;-64
2023/11/19 05:34:25;;;;;;;34.60;18.33;;;0.70;2201.60;;;;;;6246394;23;20039;-63
2023/11/19 05:36:50;;;;;;;27.23;13.35;;;0.80;2201.60;;;;;;6245856;23;20004;-62
2023/11/19 05:39:18;;;;;;;30.05;14.07;;;0.80;2201.60;;;;;;6245784;23;20007;-63
2023/11/19 05:41:44;;;;;;;17.27;9.55;;;0.90;2201.60;;;;;;6245649;23;20004;-64
2023/11/19 05:44:09;;;;;;;21.23;11.50;;;25.60;2201.60;;;;;;6246154;23;20067;-64
2023/11/19 05:46:40;;;;;;;23.92;12.85;;;25.80;2201.60;;;;;;6246753;23;20000;-63
2023/11/19 05:49:06;;;;;;;168.10;64.38;;;25.90;2201.60;;;;;;6246388;23;20050;-64
2023/11/19 05:51:31;;;;;;;153.27;58.42;;;25.90;2201.60;;;;;;6246311;23;20329;-64
2023/11/19 05:54:00;;;;;;;40.45;20.42;;;26.00;2201.60;;;;;;6246302;23;20007;-64
2023/11/19 05:56:32;;;;;;;37.05;19.40;;;26.00;2201.60;;;;;;6246523;23;20016;-65
2023/11/19 05:59:01;;;;;;;56.45;26.17;;;26.10;2201.60;;;;;;6246001;23;20003;-65
2023/11/19 06:01:26;;;;;;;59.47;26.55;;;26.20;2201.60;;;;;;6246834;23;20610;-64
2023/11/19 06:03:52;;;;;;;61.53;29.88;;;26.40;2201.60;;;;;;6246573;23;20000;-66
2023/11/19 06:06:18;;;;;;;48.92;25.13;;;51.40;2227.20;;;;;;6246193;23;20031;-66
2023/11/19 06:08:44;;;;;;;39.15;22.73;;;76.90;2227.20;;;;;;6245924;23;20080;-65
2023/11/19 06:11:18;;;;;;;42.13;22.48;;;77.00;2227.20;;;;;;6246162;23;20429;-66
2023/11/19 06:13:44;;;;;;;68.65;31.13;;;76.90;2227.20;;;;;;6245793;23;20014;-67
2023/11/19 06:16:10;;;;;;;53.60;28.98;;;52.10;2227.20;;;;;;6245634;23;20012;-67
2023/11/19 06:18:37;;;;;;;47.38;24.95;;;51.80;2227.20;;;;;;6246556;23;20799;-65
2023/11/19 06:21:02;;;;;;;35.53;19.77;;;51.80;2227.20;;;;;;6246308;23;20062;-66
2023/11/19 06:23:28;;;;;;;52.45;29.55;;;52.00;2227.20;;;;;;6245944;23;20000;-65
2023/11/19 06:25:54;;;;;;;61.95;36.05;;;76.90;2227.20;;;;;;6244372;23;20448;-66
2023/11/19 06:28:20;;;;;;;55.95;31.73;;;;;;;;;;6246556;23;20338;-67
2023/11/19 06:30:46;;;;;;;38.60;23.02;;;;;;;;;;6246598;23;20000;-66
2023/11/19 06:33:15;;;;;;;53.88;31.38;;;154.20;2252.80;;;;;;6245756;23;20004;-66
2023/11/19 06:35:41;;;;;;;34.65;20.42;;;154.20;2252.80;;;;;;6245846;23;20063;-66
2023/11/19 06:38:07;;;;;;;44.15;25.55;;;;;;;;;;6244871;23;20032;-66
2023/11/19 06:40:35;;;;;;;27.08;20.40;;;180.00;2252.80;;;;;;6245971;23;20036;-64
2023/11/19 06:43:03;;;;;;;19.50;12.65;;;179.60;2252.80;;;;;;6244836;23;19996;-68
2023/11/19 06:45:29;;;;;;;18.38;12.15;;;153.60;2252.80;;;;;;6245665;23;20011;-64
2023/11/19 06:47:55;;;;;;;19.63;11.18;;;;;;;;;;6245678;23;20004;-65
2023/11/19 06:50:21;;;;;;;19.17;13.63;;;154.40;2252.80;;;;;;6245975;23;20000;-64
2023/11/19 06:52:47;;;;;;;25.90;14.13;;;154.30;2252.80;;;;;;6247713;23;20003;-65
2023/11/19 06:55:13;;;;;;;40.28;24.08;;;153.90;2252.80;;;;;;6248129;23;20383;-66
2023/11/19 06:57:38;;;;;;;48.03;23.55;;;128.90;2252.80;;;;;;6247613;23;20020;-67
2023/11/19 07:00:06;;;;;;;38.72;18.38;;;153.90;2252.80;;;;;;6247159;23;20356;-65
2023/11/19 07:02:32;;;;;;;61.35;31.48;;;154.10;2252.80;;;;;;6247382;23;20000;-66
2023/11/19 07:05:00;;;;;;;88.50;42.38;;;;;;;;;;6247373;23;20435;-65
2023/11/19 07:07:26;;;;;;;84.88;40.33;;;179.40;2252.80;;;;;;6247321;23;20012;-66
2023/11/19 07:09:52;;;;;;;36.63;19.95;;;179.60;2252.80;;;;;;6220339;23;20318;-65
2023/11/19 07:12:18;;;;;;;51.97;25.88;;;;;;;;;;6247449;23;20058;-65
2023/11/19 07:14:43;;;;;;;117.65;56.30;;;230.60;2252.80;;;;;;6247717;23;20514;-66
2023/11/19 07:17:13;;;;;;;20.55;12.13;;;;;;;;;;6247122;23;20008;-65
2023/11/19 07:19:39;;;;;;;25.20;14.20;;;;;;;;;;6247400;23;20057;-64
2023/11/19 07:22:06;;;;;;;35.15;19.60;;;;;;;;;;6246932;23;20041;-65
2023/11/19 07:24:32;;;;;;;25.38;14.52;;;333.10;1996.80;;;;;;6247797;23;20000;-66
2023/11/19 07:26:58;;;;;;;58.97;25.77;;;;;;;;;;6246307;23;20378;-67
2023/11/19 07:29:24;;;;;;;42.10;19.48;;;332.80;2022.40;;;;;;6247814;23;20011;-65
2023/11/19 07:31:49;;;;;;;27.55;14.55;;;333.10;2022.40;;;;;;6246807;23;20095;-65
2023/11/19 07:34:15;;;;;;;25.70;15.13;;;333.60;1920.00;;;;;;6247097;23;20003;-65
2023/11/19 07:36:41;;;;;;;12.15;7.97;;;;;;;;;;6246762;23;20015;-65
2023/11/19 07:39:08;;;;;;;19.17;12.57;;;;;;;;;;6246913;23;19996;-67
2023/11/19 07:41:35;;;;;;;40.83;25.48;;;;;;;;;;6247939;23;20016;-66
2023/11/19 07:44:03;;;;;;;22.23;12.88;;;;;;;;;;6246866;23;20012;-68
2023/11/19 07:46:30;;;;;;;89.40;45.08;;;;;;;;;;6247134;23;20079;-65
2023/11/19 07:48:55;;;;;;;38.50;22.10;;;179.60;2252.80;;;;;;6247352;23;20010;-65
2023/11/19 07:51:21;;;;;;;29.67;16.17;;;179.80;2252.80;;;;;;6247151;23;20087;-65
2023/11/19 07:53:47;;;;;;;64.90;27.85;;;205.60;2252.80;;;;;;6245840;23;20004;-63
2023/11/19 07:56:13;;;;;;;22.85;12.20;;;;;;;;;;6247343;23;20008;-63
2023/11/19 07:58:38;;;;;;;27.95;15.48;;;307.50;2176.00;;;;;;6246587;23;20024;-63
2023/11/19 08:01:05;;;;;;;51.45;35.97;;;307.60;2124.80;;;;;;6246356;23;20046;-63
2023/11/19 08:03:30;;;;;;;84.82;49.95;;;307.80;2099.20;;;;;;6246147;23;20001;-63
2023/11/19 08:05:59;;;;;;;21.17;11.00;;;307.50;2099.20;;;;;;6245953;23;20011;-64
2023/11/19 08:08:25;;;;;;;22.70;12.65;;;256.50;2201.60;;;;;;6243746;23;20008;-63
2023/11/19 08:10:55;;;;;;;61.58;29.27;;;;;;;;;;6245618;23;20086;-63
2023/11/19 08:13:20;;;;;;;70.63;32.70;;;205.40;2252.80;;;;;;6246704;23;20501;-65
2023/11/19 08:15:46;;;;;;;15.90;8.88;;;179.80;2252.80;;;;;;6245484;23;20008;-69
2023/11/19 08:18:13;;;;;;;40.45;19.58;;;179.40;2252.80;;;;;;6245439;23;20437;-62
2023/11/19 08:20:38;;;;;;;21.30;11.65;;;179.30;2252.80;;;;;;6246955;23;20004;-65
2023/11/19 08:23:08;;;;;;;88.53;38.38;;;;;;;;;;6245673;23;20003;-65
2023/11/19 08:25:34;;;;;;;31.38;16.20;;;154.40;2252.80;;;;;;6246496;23;20000;-65
2023/11/19 08:28:00;;;;;;;80.75;48.42;;;154.20;2252.80;;;;;;6246527;23;20005;-68
2023/11/19 08:30:26;;;;;;;79.90;35.50;;;153.70;2252.80;;;;;;6245857;23;20429;-66
2023/11/19 08:32:52;;;;;;;45.47;23.00;;;128.90;2252.80;;;;;;6245889;23;20083;-65
2023/11/19 08:35:18;;;;;;;29.88;15.10;;;153.60;2252.80;;;;;;6246417;23;20027;-67
2023/11/19 08:37:45;;;;;;;39.45;24.60;;;153.80;2252.80;;;;;;6246134;23;20075;-66
2023/11/19 08:40:12;;;;;;;37.40;18.65;;;153.90;2252.80;;;;;;6246628;23;20004;-64
2023/11/19 08:42:39;;;;;;;25.65;13.52;;;153.90;2252.80;;;;;;6246053;23;20026;-64
2023/11/19 08:45:05;;;;;;;23.05;11.88;;;154.20;2252.80;;;;;;6246508;23;20039;-64
2023/11/19 08:47:31;;;;;;;68.28;29.90;;;154.20;2252.80;;;;;;6243662;23;20675;-64
2023/11/19 08:49:56;;;;;;;66.75;28.67;;;153.80;2252.80;;;;;;6246078;23;20008;-65
2023/11/19 08:52:22;;;;;;;71.30;31.90;;;153.80;2252.80;;;;;;6244736;23;20058;-65
2023/11/19 08:54:48;;;;;;;25.33;13.55;;;153.60;2252.80;;;;;;6244806;23;20004;-64
2023/11/19 08:57:13;;;;;;;22.90;11.85;;;128.90;2252.80;;;;;;6245119;23;20051;-63
2023/11/19 08:59:39;;;;;;;61.88;26.30;;;153.70;2252.80;;;;;;6245253;23;20000;-63
2023/11/19 09:02:06;;;;;;;99.00;49.42;;;153.70;2252.80;;;;;;6244963;23;20000;-66
2023/11/19 09:04:32;;;;;;;14.93;9.00;;;153.70;2252.80;;;;;;6245179;23;20440;-67
2023/11/19 09:07:01;;;;;;;14.98;8.60;;;128.90;2252.80;;;;;;6244920;23;20063;-64
2023/11/19 09:09:27;;;;;;;20.40;10.38;;;153.70;2252.80;;;;;;6244930;23;20000;-64
2023/11/19 09:11:53;;;;;;;41.58;18.27;;;153.60;2252.80;;;;;;6245583;23;20087;-66
2023/11/19 09:14:18;;;;;;;20.50;11.38;;;128.80;2252.80;;;;;;6245191;23;20004;-64
2023/11/19 09:16:44;;;;;;;24.15;12.90;;;128.80;2252.80;;;;;;6243888;23;20016;-64
2023/11/19 09:19:10;;;;;;;20.30;11.35;;;128.90;2252.80;;;;;;6244773;23;20087;-65
2023/11/19 09:21:38;;;;;;;45.30;24.63;;;128.80;2252.80;;;;;;6244006;23;20477;-63
2023/11/19 09:24:05;;;;;;;29.52;16.83;;;128.90;2252.80;;;;;;6243958;23;20044;-63
2023/11/19 09:26:30;;;;;;;28.20;15.38;;;153.70;2252.80;;;;;;6218274;23;20012;-65
2023/11/19 09:28:59;;;;;;;33.42;18.83;;;128.90;2252.80;;;;;;6244756;23;20129;-64
2023/11/19 09:31:28;;;;;;;20.33;12.40;;;128.80;2252.80;;;;;;6241985;23;20036;-68
2023/11/19 09:33:54;;;;;;;18.05;10.23;;;128.70;2252.80;;;;;;6244590;23;20007;-64
2023/11/19 09:36:19;;;;;;;33.97;16.70;;;128.70;2252.80;;;;;;6243574;23;20088;-67
2023/11/19 09:38:45;;;;;;;20.38;11.63;;;128.70;2252.80;;;;;;6243455;23;20004;-65
2023/11/19 09:41:13;;;;;;;17.67;9.48;;;153.60;2252.80;;;;;;6244489;23;20079;-66
2023/11/19 09:43:42;;;;;;;42.45;19.83;;;153.80;2252.80;;;;;;6244223;23;20004;-63
2023/11/19 09:46:16;;;;;;;18.25;8.95;;;154.20;2252.80;;;;;;6243323;23;20498;-64
2023/11/19 09:48:43;;;;;;;43.75;19.05;;;179.20;2252.80;;;;;;6243342;23;20005;-64
2023/11/19 09:51:11;;;;;;;14.00;8.13;;;179.70;2252.80;;;;;;6244335;23;20007;-68
2023/11/19 09:53:38;;;;;;;26.83;13.82;;;;;;;;;;6243489;23;20141;-66
2023/11/19 09:56:10;;;;;;;23.98;11.60;;;230.60;2252.80;;;;;;6243615;23;20016;-64
2023/11/19 09:58:36;;;;;;;31.27;14.95;;;230.40;2252.80;;;;;;6243687;23;20447;-66
2023/11/19 10:01:10;;;;;;;30.98;16.65;;;205.60;2252.80;;;;;;6242231;23;20380;-63
2023/11/19 10:03:41;;;;;;;16.83;9.65;;;205.70;2252.80;;;;;;6241292;23;20011;-65
2023/11/19 10:06:08;;;;;;;16.92;9.95;;;230.40;2252.80;;;;;;6244025;23;20008;-67
2023/11/19 10:08:36;;;;;;;23.98;12.90;;;230.50;2252.80;;;;;;6244239;23;20520;-66
2023/11/19 10:11:02;;;;;;;65.22;20.50;;;230.60;2252.80;;;;;;6243781;23;20433;-65
2023/11/19 10:13:28;;;;;;;21.83;11.60;;;205.70;2252.80;;;;;;6243590;23;20007;-65
2023/11/19 10:15:57;;;;;;;22.20;11.10;;;230.50;2252.80;;;;;;6243010;23;20012;-67
2023/11/19 10:18:26;;;;;;;27.15;11.20;;;230.80;2252.80;;;;;;6242909;23;20004;-66
2023/11/19 10:20:53;;;;;;;24.50;11.93;;;;;;;;;;6241880;23;20433;-64
2023/11/19 10:23:19;;;;;;;8.82;5.68;;;256.60;2252.80;;;;;;6241961;23;20420;-65
2023/11/19 10:25:45;;;;;;;14.65;7.50;;;;;;;;;;6242987;23;20007;-65
2023/11/19 10:28:11;;;;;;;20.13;10.43;;;;;;;;;;6243029;23;20310;-64
2023/11/19 10:30:37;;;;;;;16.58;9.05;;;256.10;2252.80;;;;;;6241555;23;20417;-67
2023/11/19 10:33:19;;;;;;;16.40;7.75;;;256.00;2252.80;;;;;;6243015;23;20012;-65
2023/11/19 10:35:54;;;;;;;12.70;7.63;;;230.80;2252.80;;;;;;6242491;23;20016;-65
2023/11/19 10:38:20;;;;;;;9.38;6.20;;;230.70;2252.80;;;;;;6243278;23;20425;-66
2023/11/19 10:40:46;;;;;;;44.03;20.23;;;230.40;2252.80;;;;;;6243379;23;20002;-66
2023/11/19 10:43:14;;;;;;;37.55;18.25;;;205.70;2252.80;;;;;;6243492;23;20027;-65
2023/11/19 10:45:40;;;;;;;21.17;11.32;;;205.50;2252.80;;;;;;6242718;23;20007;-65
2023/11/19 10:48:07;;;;;;;39.40;21.08;;;;;;;;;;6243769;23;20000;-66
2023/11/19 10:50:35;;;;;;;46.17;20.65;;;;;;;;;;6241430;23;20328;-68
2023/11/19 10:53:03;;;;;;;23.77;12.73;;;;;;;;;;6243344;23;20028;-66
2023/11/19 10:55:30;;;;;;;17.02;10.30;;;;;;;;;;6241536;23;20012;-66
2023/11/19 10:58:10;;;;;;;17.10;10.57;;;;;;;;;;6243705;23;20000;-65
2023/11/19 11:00:42;;;;;;;13.73;7.47;;;;;;;;;;6241146;23;20008;-64
2023/11/19 11:03:12;;;;;;;12.05;8.18;;;;;;;;;;6244333;23;20007;-64
2023/11/19 11:05:41;;;;;;;12.90;7.68;;;;;;;;;;6244543;23;20000;-66
2023/11/19 11:08:08;;;;;;;18.40;8.73;;;;;;;;;;6244642;23;20019;-65
2023/11/19 11:10:38;;;;;;;39.55;21.83;;;;;;;;;;6244294;23;20499;-65
2023/11/19 11:13:04;;;;;;;17.27;9.82;;;;;;;;;;6245424;23;20354;-65
2023/11/19 11:15:31;;;;;;;15.48;8.38;;;;;;;;;;6243853;23;20338;-65
2023/11/19 11:18:01;;;;;;;13.15;7.80;;;;;;;;;;6244624;23;19996;-67
2023/11/19 11:20:28;;;;;;;13.40;7.35;;;;;;;;;;6244213;23;20004;-66
2023/11/19 11:23:08;;;;;;;19.23;9.30;;;205.50;2252.80;;;;;;6244482;23;20004;-64
2023/11/19 11:25:55;;;;;;;19.13;10.23;;;205.40;2252.80;;;;;;6245018;23;20356;-66
2023/11/19 11:28:35;;;;;;;21.65;12.60;;;205.40;2252.80;;;;;;6245352;23;20334;-67
2023/11/19 11:31:23;;;;;;;14.35;8.88;;;205.40;2252.80;;;;;;6244325;23;20329;-66
2023/11/19 11:34:22;;;;;;;26.23;13.52;;;205.70;2252.80;;;;;;6244157;23;20012;-66
2023/11/19 11:37:34;;;;;;;62.17;28.40;;;205.60;2252.80;;;;;;6245075;23;20040;-65
2023/11/19 11:40:10;;;;;;;29.33;14.38;;;205.70;2252.80;;;;;;6094676;23;20348;-64
2023/11/19 11:42:36;;;;;;;24.20;11.43;;;205.60;2252.80;;;;;;6093451;23;20003;-67
2023/11/19 11:45:09;;;;;;;24.27;11.73;;;205.50;2252.80;;;;;;6092601;23;20406;-65
2023/11/19 11:47:43;;;;;;;68.72;31.27;;;205.40;2252.80;;;;;;6094270;23;20013;-66
2023/11/19 11:50:11;;;;;;;59.80;27.73;;;205.30;2252.80;;;;;;6093414;23;20073;-65
2023/11/19 11:52:58;;;;;;;43.38;20.83;;;205.30;2252.80;;;;;;6094299;23;20011;-65
2023/11/19 11:55:55;;;;;;;39.80;19.75;;;205.30;2252.80;;;;;;6093677;23;20523;-65
2023/11/19 11:58:25;;;;;;;43.78;22.92;;;205.30;2252.80;;;;;;6094077;23;20610;-64
2023/11/19 12:00:52;;;;;;;41.95;20.98;;;205.30;2252.80;;;;;;6093257;23;20011;-66
2023/11/19 12:03:24;;;;;;;41.28;21.15;;;205.40;2252.80;;;;;;6093388;23;20320;-68
2023/11/19 12:05:50;;;;;;;25.52;13.82;;;205.40;2252.80;;;;;;6095001;23;20006;-65
2023/11/19 12:08:22;;;;;;;23.20;12.93;;;205.40;2252.80;;;;;;6068349;23;21029;-66
2023/11/19 12:10:51;;;;;;;35.15;17.70;;;205.20;2252.80;;;;;;6093451;23;20010;-65
2023/11/19 12:13:19;;;;;;;29.67;14.27;;;205.20;2252.80;;;;;;6093584;23;20101;-66
2023/11/19 12:15:57;;;;;;;35.50;18.40;;;205.10;2252.80;;;;;;6178319;23;20019;-66
2023/11/19 12:18:24;;;;;;;24.08;12.38;;;205.20;2252.80;;;;;;6246055;23;20008;-65
2023/11/19 12:20:50;;;;;;;21.50;13.10;;;205.20;2252.80;;;;;;6245132;23;19997;-64
2023/11/19 12:23:16;;;;;;;71.88;32.20;;;205.30;2252.80;;;;;;6245664;23;20054;-65
2023/11/19 12:25:47;;;;;;;85.55;37.55;;;205.40;2252.80;;;;;;6247213;23;20028;-65
2023/11/19 12:28:19;;;;;;;41.50;19.23;;;205.50;2252.80;;;;;;6245167;23;20050;-65
2023/11/19 12:30:48;;;;;;;73.15;29.58;;;230.40;2252.80;;;;;;6244618;23;20005;-66
2023/11/19 12:33:16;;;;;;;59.78;22.95;;;230.70;2252.80;;;;;;6245038;23;20016;-65
2023/11/19 12:35:45;;;;;;;48.42;19.38;;;231.20;2252.80;;;;;;6246677;23;20035;-65
2023/11/19 12:38:21;;;;;;;50.95;20.77;;;231.30;2252.80;;;;;;6245651;23;20008;-66
2023/11/19 12:40:47;;;;;;;34.55;14.18;;;230.90;2252.80;;;;;;6246017;23;20117;-66
2023/11/19 12:43:22;;;;;;;36.35;16.35;;;230.80;2252.80;;;;;;6246192;23;20078;-65
2023/11/19 12:45:48;;;;;;;30.92;17.25;;;230.60;2252.80;;;;;;6246310;23;20000;-65
2023/11/19 12:48:20;;;;;;;41.22;19.67;;;230.40;2252.80;;;;;;6244984;23;20069;-65
2023/11/19 12:50:57;;;;;;;78.45;36.55;;;230.40;2252.80;;;;;;6245965;23;20004;-65